Time;durP1;ratioP1;P1;durP2;ratioP2;P2;SDS_P1;SDS_P2;PMS_P1;PMS_P2;Temp;Humidity;BMP_temperature;BMP_pressure;BME280_temperature;BME280_humidity;BME280_pressure;Samples;Min_cycle;Max_cycle;Signal;HPM_P1;HPM_P2
2023/07/26 00:01:56;;;;;;;3.87;1.60;;;;;;;15.04;100.00;99625.59;5043189;28;20427;-68
2023/07/26 00:04:21;;;;;;;2.43;1.60;;;;;;;15.12;100.00;99631.00;5055328;28;20192;-68
2023/07/26 00:06:46;;;;;;;5.80;1.90;;;;;;;15.04;100.00;99629.97;5052634;28;20192;-69
2023/07/26 00:09:12;;;;;;;2.00;1.53;;;;;;;15.04;100.00;99624.81;5052474;28;20181;-68
2023/07/26 00:11:37;;;;;;;4.13;1.43;;;;;;;14.83;100.00;99629.00;5054192;28;20627;-69
2023/07/26 00:14:04;;;;;;;5.00;1.80;;;;;;;14.84;100.00;99625.44;5050810;28;20226;-71
2023/07/26 00:16:30;;;;;;;4.47;1.83;;;;;;;14.66;100.00;99634.66;5052516;28;20231;-69
2023/07/26 00:18:56;;;;;;;4.57;1.63;;;;;;;14.64;100.00;99629.59;5052439;28;20195;-70
2023/07/26 00:21:21;;;;;;;4.30;1.73;;;;;;;14.66;100.00;99634.66;5051885;28;20236;-70
2023/07/26 00:23:47;;;;;;;5.23;1.80;;;;;;;14.60;100.00;99637.72;5056963;28;20272;-70
2023/07/26 00:26:12;;;;;;;4.77;1.50;;;;;;;14.54;100.00;99636.44;5050901;28;20247;-70
2023/07/26 00:28:37;;;;;;;4.37;1.50;;;;;;;14.48;100.00;99637.75;5051010;28;20201;-70
2023/07/26 00:31:02;;;;;;;3.53;1.80;;;;;;;14.33;100.00;99636.34;5050266;28;20216;-71
2023/07/26 00:33:28;;;;;;;4.40;1.70;;;;;;;14.23;100.00;99640.59;5058834;28;20593;-70
2023/07/26 00:35:53;;;;;;;1.90;1.30;;;;;;;14.20;100.00;99647.66;5050434;28;20175;-69
2023/07/26 00:38:18;;;;;;;2.93;1.63;;;;;;;14.07;100.00;99644.38;5050667;28;20181;-69
2023/07/26 00:40:43;;;;;;;4.07;1.90;;;;;;;14.06;100.00;99647.88;5047204;28;20224;-69
2023/07/26 00:43:09;;;;;;;2.87;1.50;;;;;;;14.01;100.00;99645.63;5060480;28;20395;-68
2023/07/26 00:45:37;;;;;;;3.07;1.67;;;;;;;14.02;100.00;99646.47;5051721;28;20196;-69
2023/07/26 00:48:03;;;;;;;3.10;2.17;;;;;;;13.99;100.00;99655.28;5050446;28;20177;-69
2023/07/26 00:50:28;;;;;;;2.53;1.70;;;;;;;13.91;100.00;99662.00;5044877;28;20240;-69
2023/07/26 00:52:54;;;;;;;3.13;1.83;;;;;;;13.86;100.00;99652.00;5062293;28;20237;-69
2023/07/26 00:55:20;;;;;;;4.07;2.20;;;;;;;13.82;100.00;99658.34;5049794;28;20555;-69
2023/07/26 00:57:46;;;;;;;6.67;1.80;;;;;;;13.67;100.00;99663.72;5047735;28;20185;-69
2023/07/26 01:00:12;;;;;;;1.70;1.60;;;;;;;13.55;100.00;99662.84;5027234;28;20196;-69
2023/07/26 01:02:38;;;;;;;5.57;1.63;;;;;;;13.51;100.00;99661.44;5045561;28;20308;-68
2023/07/26 01:05:05;;;;;;;3.93;1.83;;;;;;;13.46;100.00;99660.13;5045242;28;20260;-69
2023/07/26 01:08:01;;;;;;;4.57;2.30;;;;;;;13.22;100.00;99669.53;5050955;28;20211;-68
2023/07/26 01:10:46;;;;;;;5.67;1.57;;;;;;;13.04;100.00;99663.94;5042805;28;20224;-69
2023/07/26 01:13:44;;;;;;;3.20;1.83;;;;;;;13.05;100.00;99675.91;5061248;28;20184;-69
2023/07/26 01:16:09;;;;;;;4.90;1.90;;;;;;;13.10;100.00;99672.16;5049836;28;20272;-69
2023/07/26 01:18:36;;;;;;;3.50;2.23;;;;;;;13.11;100.00;99676.41;5051268;28;20269;-69
2023/07/26 01:21:01;;;;;;;4.00;2.13;;;;;;;13.04;100.00;99678.59;5047204;28;20323;-69
2023/07/26 01:23:26;;;;;;;2.70;1.70;;;;;;;13.13;100.00;99674.53;5049125;28;20272;-70
2023/07/26 01:25:52;;;;;;;3.87;1.77;;;;;;;13.01;100.00;99671.91;5050920;28;20235;-70
2023/07/26 01:28:17;;;;;;;3.97;1.70;;;;;;;12.96;100.00;99661.09;5051100;28;20186;-69
2023/07/26 01:30:43;;;;;;;4.20;2.00;;;;;;;12.95;100.00;99664.59;5046628;28;20616;-70
2023/07/26 01:33:10;;;;;;;3.77;1.83;;;;;;;12.85;100.00;99661.00;5061022;28;20184;-69
2023/07/26 01:35:37;;;;;;;5.30;2.10;;;;;;;12.79;100.00;99667.44;5051185;28;20189;-69
2023/07/26 01:38:04;;;;;;;4.67;2.07;;;;;;;12.77;100.00;99664.13;5051431;28;20189;-69
2023/07/26 01:40:30;;;;;;;4.23;2.27;;;;;;;12.73;100.00;99663.53;5044262;28;20357;-69
2023/07/26 01:42:56;;;;;;;2.43;1.67;;;;;;;12.64;100.00;99674.50;5062180;28;20287;-68
2023/07/26 01:45:21;;;;;;;3.20;2.10;;;;;;;12.61;100.00;99669.56;5050905;28;20176;-69
2023/07/26 01:47:48;;;;;;;2.30;2.00;;;;;;;12.60;100.00;99673.06;5051139;28;20173;-69
2023/07/26 01:50:14;;;;;;;3.57;2.30;;;;;;;12.61;100.00;99673.91;5042311;28;20193;-69
2023/07/26 01:52:39;;;;;;;5.37;1.73;;;;;;;12.48;100.00;99677.34;5048684;28;20220;-69
2023/07/26 01:55:05;;;;;;;3.70;1.63;;;;;;;12.41;100.00;99676.09;5049187;28;20188;-70
2023/07/26 01:57:30;;;;;;;2.30;1.70;;;;;;;12.32;100.00;99671.59;5049671;28;20181;-69
2023/07/26 01:59:55;;;;;;;2.90;1.70;;;;;;;12.24;100.00;99675.50;5051275;28;20184;-69
2023/07/26 02:02:21;;;;;;;2.53;1.90;;;;;;;12.24;100.00;99669.50;5039119;28;20224;-69
2023/07/26 02:04:46;;;;;;;3.13;1.70;;;;;;;12.19;100.00;99675.00;5049336;28;20295;-69
2023/07/26 02:07:12;;;;;;;4.40;2.07;;;;;;;12.13;100.00;99683.16;5051481;28;20177;-69
2023/07/26 02:09:37;;;;;;;3.07;2.00;;;;;;;12.10;100.00;99675.63;5053629;28;20540;-69
2023/07/26 02:12:03;;;;;;;3.00;1.87;;;;;;;12.07;100.00;99681.00;5041528;28;20213;-70
2023/07/26 02:14:29;;;;;;;2.20;1.90;;;;;;;12.04;100.00;99682.00;5054440;28;20216;-69
2023/07/26 02:16:54;;;;;;;2.43;1.97;;;;;;;11.98;100.00;99689.34;5054953;28;20181;-68
2023/07/26 02:19:19;;;;;;;5.03;2.00;;;;;;;11.91;100.00;99692.28;5055281;28;20931;-68
2023/07/26 02:21:44;;;;;;;3.47;1.63;;;;;;;12.00;100.00;99688.31;5056654;28;20228;-68
2023/07/26 02:24:10;;;;;;;2.83;2.00;;;;;;;12.10;100.00;99689.31;5056548;28;20181;-69
2023/07/26 02:26:35;;;;;;;1.63;1.53;;;;;;;12.13;100.00;99683.16;5054674;28;20209;-68
2023/07/26 02:29:00;;;;;;;4.80;2.40;;;;;;;12.07;100.00;99683.56;5053777;28;20286;-68
2023/07/26 02:31:25;;;;;;;2.77;1.70;;;;;;;12.22;100.00;99690.25;5053955;28;20251;-69
2023/07/26 02:33:51;;;;;;;2.87;1.60;;;;;;;12.36;100.00;99688.50;5059447;28;20185;-69
2023/07/26 02:36:16;;;;;;;3.43;1.80;;;;;;;12.45;100.00;99694.78;5052584;28;20556;-69
2023/07/26 02:38:41;;;;;;;2.20;2.00;;;;;;;12.52;100.00;99691.66;5053018;28;20181;-68
2023/07/26 02:41:06;;;;;;;1.60;1.50;;;;;;;12.62;100.00;99691.84;5051503;28;20220;-69
2023/07/26 02:43:32;;;;;;;2.40;1.97;;;;;;;12.68;100.00;99690.59;5053249;28;20715;-70
2023/07/26 02:45:57;;;;;;;3.17;2.23;;;;;;;12.75;100.00;99686.63;5053920;28;20179;-70
2023/07/26 02:48:22;;;;;;;3.77;1.80;;;;;;;12.82;100.00;99677.53;5052791;28;20189;-68
2023/07/26 02:50:47;;;;;;;2.47;1.53;;;;;;;12.79;100.00;99687.25;5045956;28;20698;-69
2023/07/26 02:53:13;;;;;;;6.63;1.77;;;;;;;12.90;100.00;99687.34;5053736;28;20180;-69
2023/07/26 02:55:42;;;;;;;4.37;1.73;;;;;;;12.99;100.00;99698.78;5053502;28;20174;-70
2023/07/26 02:58:07;;;;;;;3.13;1.80;;;;;;;13.01;100.00;99687.41;5053007;28;20235;-69
2023/07/26 03:00:32;;;;;;;2.73;1.80;;;;;;;12.84;100.00;99701.50;5035123;28;20240;-69
2023/07/26 03:02:58;;;;;;;2.40;1.63;;;;;;;12.99;100.00;99691.03;5065233;28;20352;-69
2023/07/26 03:05:23;;;;;;;2.47;1.60;;;;;;;13.03;100.00;99701.00;5053582;28;20182;-70
2023/07/26 03:07:48;;;;;;;2.70;1.63;;;;;;;13.03;100.00;99702.78;5053912;28;20184;-69
2023/07/26 03:10:14;;;;;;;2.33;1.40;;;;;;;13.12;100.00;99691.78;5044948;28;20193;-69
2023/07/26 03:12:39;;;;;;;3.50;1.53;;;;;;;13.12;100.00;99702.09;5067426;28;20235;-68
2023/07/26 03:15:04;;;;;;;2.50;1.37;;;;;;;13.18;100.00;99696.50;5043231;28;20232;-70
2023/07/26 03:17:30;;;;;;;6.30;1.80;;;;;;;13.23;100.00;99706.50;5062451;28;20181;-69
2023/07/26 03:19:55;;;;;;;4.10;1.53;;;;;;;13.23;100.00;99703.91;5053412;28;20181;-69
2023/07/26 03:22:20;;;;;;;1.90;1.70;;;;;;;13.24;100.00;99708.97;5058407;28;20228;-70
2023/07/26 03:24:45;;;;;;;1.73;1.53;;;;;;;13.28;100.00;99713.94;5053339;28;20184;-69
2023/07/26 03:27:11;;;;;;;2.93;1.60;;;;;;;13.35;100.00;99708.19;5053827;28;20228;-69
2023/07/26 03:29:36;;;;;;;3.17;1.37;;;;;;;13.39;100.00;99712.22;5053256;28;20197;-69
2023/07/26 03:32:01;;;;;;;5.40;1.70;;;;;;;13.32;100.00;99716.19;5037940;28;20655;-68
2023/07/26 03:34:26;;;;;;;2.37;1.60;;;;;;;13.28;100.00;99721.69;5052802;28;20173;-68
2023/07/26 03:36:52;;;;;;;1.70;1.40;;;;;;;13.39;100.00;99714.00;5053866;28;20189;-68
2023/07/26 03:39:17;;;;;;;2.43;1.60;;;;;;;13.44;100.00;99716.25;5053257;28;20607;-69
2023/07/26 03:41:42;;;;;;;3.57;1.83;;;;;;;13.48;100.00;99715.09;5044799;28;20302;-69
2023/07/26 03:44:07;;;;;;;4.50;2.03;;;;;;;13.48;100.00;99717.69;5055327;28;20205;-69
2023/07/26 03:46:33;;;;;;;4.63;1.70;;;;;;;13.26;100.00;99719.22;5051447;28;20549;-68
2023/07/26 03:48:58;;;;;;;3.73;1.93;;;;;;;13.20;100.00;99722.25;5053201;28;20258;-68
2023/07/26 03:51:24;;;;;;;2.80;2.00;;;;;;;13.32;100.00;99726.53;5044896;28;20638;-68
2023/07/26 03:53:49;;;;;;;4.90;1.60;;;;;;;13.33;100.00;99720.41;5051172;28;20288;-69
2023/07/26 03:56:14;;;;;;;3.27;1.70;;;;;;;13.27;100.00;99718.25;5051116;28;20181;-69
2023/07/26 03:58:39;;;;;;;2.20;1.70;;;;;;;13.26;100.00;99726.97;5051801;28;20921;-68
2023/07/26 04:01:05;;;;;;;4.57;1.97;;;;;;;13.27;100.00;99722.59;5044113;28;20224;-68
2023/07/26 04:03:30;;;;;;;2.47;1.80;;;;;;;13.25;100.00;99725.31;5059789;28;20177;-69
2023/07/26 04:05:55;;;;;;;2.23;1.67;;;;;;;13.22;100.00;99731.53;5052517;28;20177;-69
2023/07/26 04:08:21;;;;;;;3.63;2.10;;;;;;;13.24;100.00;99732.22;5050889;28;20323;-69
2023/07/26 04:10:46;;;;;;;3.30;1.80;;;;;;;13.29;100.00;99731.09;5044605;28;20224;-69
2023/07/26 04:13:11;;;;;;;5.73;1.93;;;;;;;13.26;100.00;99733.88;5051380;28;20193;-69
2023/07/26 04:15:36;;;;;;;3.30;2.00;;;;;;;13.28;100.00;99732.81;5046349;28;20234;-69
2023/07/26 04:18:02;;;;;;;3.77;1.60;;;;;;;13.28;100.00;99734.59;5045023;28;20576;-68
2023/07/26 04:20:27;;;;;;;3.87;2.00;;;;;;;13.42;100.00;99738.78;5042785;28;20258;-68
2023/07/26 04:22:52;;;;;;;2.63;1.80;;;;;;;13.45;100.00;99738.59;5044908;28;20232;-68
2023/07/26 04:25:17;;;;;;;4.17;2.20;;;;;;;13.51;100.00;99732.97;5048016;28;20174;-69
2023/07/26 04:27:43;;;;;;;3.43;1.90;;;;;;;13.61;100.00;99735.72;5051421;28;20186;-69
2023/07/26 04:30:08;;;;;;;2.20;1.83;;;;;;;13.69;100.00;99741.13;5041028;28;20747;-69
2023/07/26 04:32:33;;;;;;;2.80;2.07;;;;;;;13.58;100.00;99736.72;5066381;28;20205;-68
2023/07/26 04:34:59;;;;;;;4.53;2.40;;;;;;;13.54;100.00;99740.50;5050461;28;20177;-69
2023/07/26 04:37:24;;;;;;;2.93;1.97;;;;;;;13.34;100.00;99737.56;5053554;28;20597;-68
2023/07/26 04:39:49;;;;;;;3.83;2.00;;;;;;;13.28;100.00;99737.19;5050895;28;20199;-68
2023/07/26 04:42:14;;;;;;;4.47;2.20;;;;;;;13.44;100.00;99732.56;5057053;28;20231;-69
2023/07/26 04:44:40;;;;;;;3.73;2.23;;;;;;;13.55;100.00;99734.38;5050095;28;20692;-69
2023/07/26 04:47:05;;;;;;;4.37;2.10;;;;;;;13.63;100.00;99734.66;5052134;28;20208;-69
2023/07/26 04:49:30;;;;;;;3.27;2.33;;;;;;;13.69;100.00;99736.81;5051880;28;20605;-68
2023/07/26 04:51:56;;;;;;;2.70;1.97;;;;;;;13.85;100.00;99739.09;5043508;28;20216;-69
2023/07/26 04:54:21;;;;;;;3.40;2.40;;;;;;;13.87;100.00;99746.72;5038447;28;20182;-69
2023/07/26 04:56:46;;;;;;;8.30;2.93;;;;;;;13.99;100.00;99747.53;5050749;28;20340;-69
2023/07/26 04:59:11;;;;;;;8.57;2.23;;;;;;;13.82;100.00;99739.28;5050502;28;20205;-70
2023/07/26 05:01:37;;;;;;;4.47;2.37;;;;;;;13.98;100.00;99748.47;5030802;28;20235;-69
2023/07/26 05:04:02;;;;;;;3.70;2.33;;;;;;;14.01;100.00;99743.09;5049064;28;20177;-69
2023/07/26 05:06:29;;;;;;;4.07;2.10;;;;;;;14.07;100.00;99744.41;5051177;28;20249;-68
2023/07/26 05:08:54;;;;;;;3.00;2.23;;;;;;;14.10;100.00;99746.75;5050248;28;20625;-69
2023/07/26 05:11:20;;;;;;;5.00;2.40;;;;;;;14.09;100.00;99748.53;5043234;28;20235;-70
2023/07/26 05:13:47;;;;;;;6.57;2.57;;;;;;;14.19;100.00;99748.66;5056489;28;20661;-70
2023/07/26 05:16:12;;;;;;;5.43;2.50;;;;;;;14.23;100.00;99752.66;5051197;28;20673;-71
2023/07/26 05:18:37;;;;;;;5.47;2.30;;;;;;;14.24;100.00;99753.47;5051433;28;20273;-69
2023/07/26 05:21:02;;;;;;;4.33;2.47;;;;;;;14.42;100.00;99756.44;5049452;28;20221;-69
2023/07/26 05:23:28;;;;;;;3.77;2.57;;;;;;;14.52;100.00;99758.22;5049679;28;20183;-69
2023/07/26 05:25:53;;;;;;;4.00;2.53;;;;;;;14.67;100.00;99765.75;5050947;28;20177;-69
2023/07/26 05:28:18;;;;;;;4.17;2.53;;;;;;;14.59;100.00;99768.91;5051319;28;20557;-69
2023/07/26 05:30:44;;;;;;;3.67;2.30;;;;;;;14.65;100.00;99775.41;5046766;28;20309;-68
2023/07/26 05:33:09;;;;;;;7.90;2.57;;;;;;;14.51;100.00;99763.47;5060736;28;20247;-68
2023/07/26 05:35:34;;;;;;;3.97;2.03;;;;;;;14.09;100.00;99771.81;5050777;28;20281;-68
2023/07/26 05:38:02;;;;;;;7.17;2.57;;;;;;;14.19;100.00;99774.53;5051167;28;20181;-69
2023/07/26 05:40:27;;;;;;;5.33;2.40;;;;;;;14.24;100.00;99775.00;5044164;28;20220;-69
2023/07/26 05:42:53;;;;;;;5.90;2.77;;;;;;;14.24;100.00;99775.00;5061754;28;20220;-69
2023/07/26 05:45:18;;;;;;;4.07;2.70;;;;;;;14.28;100.00;99776.41;5050797;28;20173;-68
2023/07/26 05:47:43;;;;;;;3.20;2.30;;;;;;;14.20;100.00;99776.16;5050960;28;20178;-68
2023/07/26 05:50:12;;;;;;;2.73;2.20;;;;;;;14.40;100.00;99779.00;5041833;28;20181;-68
2023/07/26 05:52:38;;;;;;;2.97;2.33;;;;;;;14.59;100.00;99779.25;5064688;28;20274;-68
2023/07/26 05:55:04;;;;;;;2.93;2.00;;;;;;;14.60;100.00;99778.31;5051000;28;20184;-68
2023/07/26 05:57:29;;;;;;;3.10;1.87;;;;;;;14.58;100.00;99782.78;5051284;28;20182;-69
2023/07/26 05:59:55;;;;;;;5.00;2.20;;;;;;;14.51;100.00;99789.38;5049948;28;20213;-68
2023/07/26 06:02:20;;;;;;;2.77;1.77;;;;;;;14.67;100.00;99783.88;5037171;28;20235;-68
2023/07/26 06:04:46;;;;;;;2.37;1.73;;;;;;;14.80;100.00;99784.59;5041408;28;20177;-68
2023/07/26 06:07:12;;;;;;;6.60;1.90;;;;;;;14.81;100.00;99794.00;5050904;28;20672;-68
2023/07/26 06:09:37;;;;;;;3.70;1.87;;;;;;;14.81;100.00;99791.41;5046995;28;20193;-59
2023/07/26 06:12:03;;;;;;;5.63;1.83;;;;;;;14.83;100.00;99799.06;5048751;28;20307;-63
2023/07/26 06:14:29;;;;;;;4.13;2.13;;;;;;;14.88;100.00;99796.94;5048775;28;20221;-61
2023/07/26 06:16:54;;;;;;;3.57;2.07;;;;;;;15.08;100.00;99795.41;5049586;28;20652;-61
2023/07/26 06:19:20;;;;;;;4.50;2.07;;;;;;;14.92;100.00;99800.09;5046390;28;20239;-59
2023/07/26 06:21:46;;;;;;;4.57;1.90;;;;;;;14.87;100.00;99805.63;5037418;28;20229;-63
2023/07/26 06:24:11;;;;;;;5.47;2.20;;;;;;;14.88;100.00;99809.88;5049224;28;20286;-62
2023/07/26 06:26:36;;;;;;;3.37;1.77;;;;;;;15.12;100.00;99814.94;5050850;28;20170;-62
2023/07/26 06:29:01;;;;;;;2.30;2.10;;;;;;;15.01;100.00;99820.13;5051209;28;20550;-61
2023/07/26 06:31:27;;;;;;;4.40;2.07;;;;;;;15.20;100.00;99818.69;5043996;28;20220;-61
2023/07/26 06:33:52;;;;;;;3.60;1.87;;;;;;;15.15;100.00;99821.63;5051886;28;20185;-63
2023/07/26 06:36:17;;;;;;;9.40;2.30;;;;;;;15.01;100.00;99815.75;5043871;28;20182;-59
2023/07/26 06:38:42;;;;;;;4.20;1.63;;;;;;;14.96;100.00;99820.47;5049391;28;20242;-62
2023/07/26 06:41:08;;;;;;;4.13;1.80;;;;;;;15.03;100.00;99818.22;5044706;28;20240;-61
2023/07/26 06:43:33;;;;;;;3.13;2.27;;;;;;;14.92;100.00;99813.06;5052003;28;20664;-62
2023/07/26 06:45:58;;;;;;;8.47;2.20;;;;;;;15.28;100.00;99824.06;5041808;28;20192;-61
2023/07/26 06:48:24;;;;;;;2.87;2.00;;;;;;;15.45;100.00;99817.56;5047805;28;20551;-59
2023/07/26 06:50:49;;;;;;;2.23;1.83;;;;;;;15.61;100.00;99822.34;5044996;28;20209;-60
2023/07/26 06:53:14;;;;;;;3.57;2.00;;;;;;;15.68;100.00;99820.91;5059781;28;20240;-58
2023/07/26 06:55:41;;;;;;;2.70;1.97;;;;;;;15.86;100.00;99823.00;5054012;28;20192;-59
2023/07/26 06:58:06;;;;;;;3.63;1.80;;;;;;;16.14;100.00;99821.56;5050755;28;20205;-61
2023/07/26 07:00:31;;;;;;;4.33;1.67;;;;;;;16.35;100.00;99828.50;5028346;28;20220;-60
2023/07/26 07:02:58;;;;;;;3.43;1.90;;;;;;;16.24;100.00;99821.63;5052079;28;20237;-59
2023/07/26 07:05:28;;;;;;;3.37;2.13;;;;;;;16.51;100.00;99828.03;5048339;28;20169;-60
2023/07/26 07:07:53;;;;;;;3.27;2.10;;;;;;;16.74;100.00;99824.31;5052728;28;20674;-59
2023/07/26 07:10:18;;;;;;;3.03;2.13;;;;;;;17.13;100.00;99826.28;5045294;28;20177;-59
2023/07/26 07:12:44;;;;;;;5.93;1.93;;;;;;;17.26;100.00;99829.44;5052680;28;20603;-59
2023/07/26 07:15:13;;;;;;;3.03;1.70;;;;;;;17.61;100.00;99823.91;5043579;28;20791;-60
2023/07/26 07:18:28;;;;;;;4.73;1.90;;;;;;;17.61;100.00;99829.91;5050149;28;20181;-59
2023/07/26 07:20:57;;;;;;;6.23;2.07;;;;;;;17.67;100.00;99823.34;5035051;28;20571;-60
2023/07/26 07:23:51;;;;;;;2.70;1.40;;;;;;;17.59;100.00;99837.03;5066950;28;20224;-60
2023/07/26 07:26:17;;;;;;;1.90;1.73;;;;;;;17.64;100.00;99828.81;5049640;28;20213;-60
2023/07/26 07:28:42;;;;;;;1.90;1.70;;;;;;;17.89;100.00;99830.88;5052301;28;20173;-60
2023/07/26 07:31:08;;;;;;;3.33;1.60;;;;;;;18.05;100.00;99829.53;5024325;28;20286;-59
2023/07/26 07:33:33;;;;;;;3.73;2.00;;;;;;;18.08;100.00;99838.84;5060380;28;20220;-59
2023/07/26 07:35:58;;;;;;;3.27;1.93;;;;;;;18.10;100.00;99839.50;5052677;28;20184;-59
2023/07/26 07:38:24;;;;;;;5.80;1.70;;;;;;;17.87;100.00;99839.78;5042797;28;20182;-60
2023/07/26 07:40:49;;;;;;;2.13;1.77;;;;;;;17.92;100.00;99840.19;5042226;28;20228;-59
2023/07/26 07:43:15;;;;;;;4.20;1.90;;;;;;;18.01;100.00;99838.56;5050434;28;20239;-59
2023/07/26 07:45:43;;;;;;;2.63;1.70;;;;;;;18.28;100.00;99837.03;5051254;28;20185;-61
2023/07/26 07:48:08;;;;;;;3.63;1.80;;;;;;;18.20;100.00;99832.53;5053162;28;20196;-59
2023/07/26 07:50:34;;;;;;;3.30;1.87;;;;;;;18.42;100.00;99843.56;5046139;28;20578;-59
2023/07/26 07:53:00;;;;;;;2.67;1.73;;;;;;;17.74;100.00;99842.66;5043168;28;20265;-59
2023/07/26 07:55:25;;;;;;;2.73;2.00;;;;;;;17.93;100.00;99841.00;5060892;28;20173;-59
2023/07/26 07:57:50;;;;;;;3.43;2.13;;;;;;;17.89;100.00;99838.66;5053059;28;20204;-59
2023/07/26 08:00:16;;;;;;;5.63;2.33;;;;;;;17.76;100.00;99843.31;5047636;28;20196;-60
2023/07/26 08:02:41;;;;;;;4.33;2.10;;;;;;;17.93;100.00;99854.03;5048153;28;20353;-60
2023/07/26 08:05:08;;;;;;;4.10;2.13;;;;;;;18.01;100.00;99849.81;5051601;28;20659;-59
2023/07/26 08:07:34;;;;;;;1.93;1.57;;;;;;;18.26;100.00;99849.34;5051165;28;20181;-58
2023/07/26 08:09:59;;;;;;;4.37;2.10;;;;;;;18.46;100.00;99856.16;5052808;28;20185;-58
2023/07/26 08:12:24;;;;;;;2.60;1.93;;;;;;;19.08;100.00;99855.69;5058047;28;20239;-60
2023/07/26 08:14:50;;;;;;;5.57;1.90;;;;;;;20.34;94.70;99852.28;5052259;28;20221;-61
2023/07/26 08:17:15;;;;;;;4.27;1.60;;;;;;;21.83;85.31;99865.97;5052605;28;20178;-59
2023/07/26 08:19:41;;;;;;;2.97;1.53;;;;;;;22.23;73.16;99857.28;5052252;28;20602;-59
2023/07/26 08:22:06;;;;;;;2.07;1.40;;;;;;;22.86;73.94;99859.28;5057560;28;20688;-61
2023/07/26 08:24:31;;;;;;;4.57;1.73;;;;;;;22.98;72.79;99860.53;5043053;28;20201;-61
2023/07/26 08:26:56;;;;;;;2.50;1.33;;;;;;;23.80;65.22;99859.28;5046784;28;20209;-61
2023/07/26 08:29:22;;;;;;;3.53;1.77;;;;;;;24.37;56.97;99861.59;5044177;28;20674;-60
2023/07/26 08:31:47;;;;;;;1.40;1.27;;;;;;;25.49;56.21;99867.69;5029877;28;20217;-61
2023/07/26 08:34:12;;;;;;;2.88;1.55;;;;;;;27.13;44.31;99858.69;5049881;28;20189;-60
2023/07/26 08:36:37;;;;;;;3.00;1.48;;;;;;;27.48;43.16;99863.06;5052341;28;20626;-59
2023/07/26 08:39:03;;;;;;;3.67;1.73;;;;;;;25.89;44.38;99863.59;5052068;28;20177;-60
2023/07/26 08:41:30;;;;;;;2.53;1.67;;;;;;;24.57;49.53;99857.44;5043602;28;20229;-60
2023/07/26 08:43:59;;;;;;;3.13;1.67;;;;;;;22.93;60.91;99860.22;5042213;28;20208;-61
2023/07/26 08:46:25;;;;;;;4.25;1.73;;;;;;;22.50;70.02;99857.94;5050184;28;20259;-60
2023/07/26 08:48:51;;;;;;;3.60;2.10;;;;;;;21.94;70.57;99860.41;5044801;28;20192;-60
2023/07/26 08:51:18;;;;;;;2.60;1.80;;;;;;;21.64;76.95;99859.25;5035049;28;20237;-61
2023/07/26 08:53:45;;;;;;;3.70;1.67;;;;;;;21.17;82.52;99865.81;5038717;28;20182;-61
2023/07/26 08:56:12;;;;;;;4.00;2.13;;;;;;;20.67;77.36;99854.31;5051410;28;20200;-61
2023/07/26 08:58:37;;;;;;;4.43;2.13;;;;;;;20.41;85.68;99849.91;5050309;28;20187;-61
2023/07/26 09:01:03;;;;;;;4.30;2.10;;;;;;;20.48;81.37;99848.31;5043013;28;20316;-60
2023/07/26 09:03:28;;;;;;;2.63;1.90;;;;;;;20.51;85.77;99852.41;5051914;28;20220;-61
2023/07/26 09:06:05;;;;;;;3.77;1.83;;;;;;;20.61;82.51;99851.31;5034066;28;20189;-61
2023/07/26 09:08:31;;;;;;;4.90;2.07;;;;;;;20.92;80.81;99856.06;5050100;28;20185;-60
2023/07/26 09:10:56;;;;;;;3.03;1.80;;;;;;;21.21;78.70;99856.66;5046498;28;20220;-59
2023/07/26 09:13:22;;;;;;;3.80;2.13;;;;;;;21.07;82.23;99852.88;5041830;28;20215;-61
2023/07/26 09:15:47;;;;;;;2.97;2.00;;;;;;;21.16;78.69;99851.09;5050595;28;20216;-61
2023/07/26 09:18:14;;;;;;;4.57;2.10;;;;;;;22.60;67.04;99839.41;5048965;28;20212;-62
2023/07/26 09:20:40;;;;;;;3.87;1.80;;;;;;;23.68;59.59;99834.44;5042376;28;20224;-62
2023/07/26 09:23:05;;;;;;;5.23;2.17;;;;;;;23.62;63.33;99835.13;5060441;28;20219;-62
2023/07/26 09:25:31;;;;;;;5.77;2.23;;;;;;;23.65;61.53;99840.00;5050735;28;20185;-61
2023/07/26 09:27:58;;;;;;;4.07;1.75;;;;;;;23.71;61.23;99839.31;5050050;28;20189;-61
2023/07/26 09:30:24;;;;;;;3.65;2.55;;;;;;;23.95;58.88;99837.50;5035891;28;22110;-62
2023/07/26 09:32:49;;;;;;;2.75;1.75;;;;;;;24.92;49.63;99833.22;5058316;28;20184;-61
2023/07/26 09:35:15;;;;;;;4.57;2.53;;;;;;;26.16;43.28;99826.09;5050754;28;20181;-62
2023/07/26 09:37:40;;;;;;;3.08;1.80;;;;;;;26.14;46.33;99830.78;5049756;28;20307;-60
2023/07/26 09:40:06;;;;;;;5.22;2.22;;;;;;;24.73;49.91;99829.34;5048708;28;20276;-59
2023/07/26 09:42:46;;;;;;;7.50;2.30;;;;;;;23.59;56.48;99828.44;5040935;28;20788;-61
2023/07/26 09:45:21;;;;;;;2.88;2.00;;;;;;;22.64;68.78;99835.44;5057004;28;20200;-60
2023/07/26 09:47:46;;;;;;;2.35;1.80;;;;;;;22.49;73.92;99824.84;5049644;28;20181;-61
2023/07/26 09:50:29;;;;;;;5.23;2.40;;;;;;;22.47;71.74;99821.56;5042236;28;20176;-59
2023/07/26 09:52:55;;;;;;;3.47;1.60;;;;;;;24.26;58.51;99824.25;5040586;28;20550;-61
2023/07/26 09:55:26;;;;;;;7.28;1.80;;;;;;;24.60;58.93;99824.72;5049301;28;20644;-60
2023/07/26 09:57:53;;;;;;;4.18;1.85;;;;;;;24.56;55.14;99832.16;5049519;28;20173;-62
2023/07/26 10:00:20;;;;;;;2.60;1.65;;;;;;;23.02;61.12;99830.38;5039631;28;20593;-60
2023/07/26 10:02:53;;;;;;;5.15;1.90;;;;;;;22.67;68.02;99834.28;5049214;28;20201;-60
2023/07/26 10:05:20;;;;;;;3.10;2.00;;;;;;;22.16;67.92;99829.31;5032652;28;20544;-59
2023/07/26 10:07:46;;;;;;;3.73;1.90;;;;;;;21.73;72.55;99838.16;5050873;28;20192;-59
2023/07/26 10:10:15;;;;;;;3.70;2.07;;;;;;;21.71;73.73;99844.53;5041775;28;20200;-62
2023/07/26 10:12:44;;;;;;;3.63;2.20;;;;;;;21.88;70.25;99847.97;5064182;28;20223;-60
2023/07/26 10:15:12;;;;;;;3.33;2.50;;;;;;;23.00;61.93;99836.78;5048785;28;20227;-61
2023/07/26 10:17:38;;;;;;;2.50;2.10;;;;;;;25.13;49.64;99840.31;5049654;28;20182;-61
2023/07/26 10:20:05;;;;;;;2.88;2.15;;;;;;;27.01;42.59;99833.88;5015192;28;20458;-60
2023/07/26 10:22:32;;;;;;;4.28;2.17;;;;;;;28.08;38.28;99834.00;5046827;28;20677;-60
2023/07/26 10:24:57;;;;;;;3.47;2.28;;;;;;;28.47;35.88;99829.66;5046985;28;20188;-61
2023/07/26 10:27:24;;;;;;;3.35;2.53;;;;;;;28.49;35.28;99832.09;5050510;28;20281;-61
2023/07/26 10:29:49;;;;;;;4.40;2.25;;;;;;;29.64;34.21;99830.53;5047316;28;20695;-67
2023/07/26 10:32:15;;;;;;;4.47;2.20;;;;;;;30.94;31.50;99821.88;5049742;28;20220;-63
2023/07/26 10:34:40;;;;;;;2.72;2.22;;;;;;;31.16;30.55;99828.31;5052141;28;20518;-67
2023/07/26 10:37:19;;;;;;;2.38;2.17;;;;;;;32.76;28.15;99833.78;5055023;28;20169;-64
2023/07/26 10:39:44;;;;;;;3.17;2.67;;;;;;;32.83;28.07;99831.78;5054007;28;20177;-61
2023/07/26 10:42:25;;;;;;;6.05;2.20;;;;;;;31.07;28.91;99842.94;5047581;28;20710;-64
2023/07/26 10:44:52;;;;;;;3.05;2.33;;;;;;;29.30;31.15;99827.31;5041414;28;20308;-63
2023/07/26 10:47:18;;;;;;;2.28;2.03;;;;;;;28.54;33.17;99813.75;5054320;28;20185;-65
2023/07/26 10:49:47;;;;;;;3.92;2.78;;;;;;;28.21;33.28;99813.84;5054382;28;20177;-67
2023/07/26 10:52:13;;;;;;;3.67;2.40;;;;;;;27.45;34.89;99811.44;5042057;28;20301;-68
2023/07/26 10:54:48;;;;;;;2.90;2.33;;;;;;;26.56;35.81;99818.44;5053447;28;20256;-66
2023/07/26 10:57:15;;;;;;;2.83;2.53;;;;;;;25.31;39.19;99816.25;5048260;28;20185;-61
2023/07/26 10:59:51;;;;;;;3.90;2.05;;;;;;;24.55;41.16;99806.00;5050073;28;20204;-61
2023/07/26 11:02:35;;;;;;;4.68;2.40;;;;;;;24.51;43.09;99802.97;5015341;28;20232;-60
2023/07/26 11:05:02;;;;;;;4.72;2.83;;;;;;;23.90;43.48;99805.69;5047385;28;20180;-61
2023/07/26 11:07:58;;;;;;;5.25;2.63;;;;;;;23.55;46.10;99807.94;5049382;28;20186;-61
2023/07/26 11:10:37;;;;;;;3.38;2.40;;;;;;;22.92;48.22;99808.75;5041865;28;20225;-62
2023/07/26 11:13:13;;;;;;;5.75;2.97;;;;;;;22.14;63.96;99816.38;5051358;28;20192;-60
2023/07/26 11:15:43;;;;;;;3.27;2.97;;;;;;;20.08;86.64;99836.63;5044531;28;20258;-61
2023/07/26 11:18:10;;;;;;;4.10;3.03;;;;;;;19.40;96.45;99849.22;5055021;28;20185;-61
2023/07/26 11:20:39;;;;;;;4.83;2.10;;;;;;;18.55;92.72;99859.72;5042416;28;20227;-60
2023/07/26 11:23:18;;;;;;;2.80;2.23;;;;;;;18.39;93.86;99855.94;5046218;28;20223;-61
2023/07/26 11:25:48;;;;;;;3.53;2.40;;;;;;;18.36;96.30;99866.59;5042665;28;20201;-61